sensor_id;sensor_type;location;lat;lon;timestamp;P1;durP1;ratioP1;P2;durP2;ratioP2
29422;SDS011;16399;51.686;8.684;2022-10-15T00:01:38;5.33;;;2.65;;
29422;SDS011;16399;51.686;8.684;2022-10-15T00:04:40;3.58;;;1.98;;
29422;SDS011;16399;51.686;8.684;2022-10-15T00:07:42;7.85;;;2.40;;
29422;SDS011;16399;51.686;8.684;2022-10-15T00:10:45;5.58;;;2.20;;
29422;SDS011;16399;51.686;8.684;2022-10-15T00:13:47;4.92;;;2.50;;
29422;SDS011;16399;51.686;8.684;2022-10-15T00:16:50;7.08;;;2.55;;
29422;SDS011;16399;51.686;8.684;2022-10-15T00:19:52;3.95;;;2.20;;
29422;SDS011;16399;51.686;8.684;2022-10-15T00:22:54;3.77;;;2.08;;
29422;SDS011;16399;51.686;8.684;2022-10-15T00:26:01;6.15;;;2.22;;
29422;SDS011;16399;51.686;8.684;2022-10-15T00:29:05;4.37;;;2.50;;
29422;SDS011;16399;51.686;8.684;2022-10-15T00:32:07;3.83;;;2.20;;
29422;SDS011;16399;51.686;8.684;2022-10-15T00:35:10;4.87;;;2.50;;
29422;SDS011;16399;51.686;8.684;2022-10-15T00:38:12;3.72;;;2.22;;
29422;SDS011;16399;51.686;8.684;2022-10-15T00:41:16;6.95;;;2.72;;
29422;SDS011;16399;51.686;8.684;2022-10-15T00:47:34;5.97;;;2.62;;
29422;SDS011;16399;51.686;8.684;2022-10-15T00:50:39;10.18;;;2.70;;
29422;SDS011;16399;51.686;8.684;2022-10-15T00:53:41;5.05;;;2.20;;
29422;SDS011;16399;51.686;8.684;2022-10-15T00:56:44;4.85;;;2.58;;
29422;SDS011;16399;51.686;8.684;2022-10-15T00:59:50;5.70;;;2.42;;
29422;SDS011;16399;51.686;8.684;2022-10-15T01:02:54;5.90;;;2.60;;
29422;SDS011;16399;51.686;8.684;2022-10-15T01:05:56;4.12;;;2.33;;
29422;SDS011;16399;51.686;8.684;2022-10-15T01:08:59;4.33;;;2.42;;
29422;SDS011;16399;51.686;8.684;2022-10-15T01:12:02;4.65;;;2.52;;
29422;SDS011;16399;51.686;8.684;2022-10-15T01:18:31;5.10;;;2.45;;
29422;SDS011;16399;51.686;8.684;2022-10-15T01:21:37;5.95;;;2.60;;
29422;SDS011;16399;51.686;8.684;2022-10-15T01:24:43;7.37;;;2.72;;
29422;SDS011;16399;51.686;8.684;2022-10-15T01:27:51;4.20;;;2.52;;
29422;SDS011;16399;51.686;8.684;2022-10-15T01:30:57;9.80;;;2.70;;
29422;SDS011;16399;51.686;8.684;2022-10-15T01:34:11;4.35;;;2.50;;
29422;SDS011;16399;51.686;8.684;2022-10-15T01:37:29;4.22;;;2.62;;
29422;SDS011;16399;51.686;8.684;2022-10-15T01:40:39;6.30;;;2.83;;
29422;SDS011;16399;51.686;8.684;2022-10-15T01:43:55;4.62;;;2.70;;
29422;SDS011;16399;51.686;8.684;2022-10-15T01:47:03;5.20;;;2.58;;
29422;SDS011;16399;51.686;8.684;2022-10-15T01:50:10;4.83;;;2.80;;
29422;SDS011;16399;51.686;8.684;2022-10-15T01:53:16;7.37;;;2.70;;
29422;SDS011;16399;51.686;8.684;2022-10-15T01:56:22;5.70;;;2.85;;
29422;SDS011;16399;51.686;8.684;2022-10-15T01:59:28;5.40;;;2.75;;
29422;SDS011;16399;51.686;8.684;2022-10-15T02:02:32;6.53;;;2.40;;
29422;SDS011;16399;51.686;8.684;2022-10-15T02:05:36;9.10;;;2.77;;
29422;SDS011;16399;51.686;8.684;2022-10-15T02:12:08;13.10;;;4.35;;
29422;SDS011;16399;51.686;8.684;2022-10-15T02:15:19;11.57;;;5.15;;
29422;SDS011;16399;51.686;8.684;2022-10-15T02:19:04;9.18;;;5.05;;
29422;SDS011;16399;51.686;8.684;2022-10-15T02:21:47;15.05;;;5.97;;
29422;SDS011;16399;51.686;8.684;2022-10-15T02:24:59;12.50;;;5.25;;
29422;SDS011;16399;51.686;8.684;2022-10-15T02:28:06;10.60;;;4.83;;
29422;SDS011;16399;51.686;8.684;2022-10-15T02:31:11;9.60;;;4.85;;
29422;SDS011;16399;51.686;8.684;2022-10-15T02:34:18;10.98;;;4.87;;
29422;SDS011;16399;51.686;8.684;2022-10-15T02:37:23;12.73;;;5.30;;
29422;SDS011;16399;51.686;8.684;2022-10-15T02:40:28;12.68;;;4.92;;
29422;SDS011;16399;51.686;8.684;2022-10-15T02:43:34;11.70;;;5.30;;
29422;SDS011;16399;51.686;8.684;2022-10-15T02:46:37;12.23;;;5.17;;
29422;SDS011;16399;51.686;8.684;2022-10-15T02:49:40;10.53;;;6.10;;
29422;SDS011;16399;51.686;8.684;2022-10-15T02:52:42;13.62;;;6.00;;
29422;SDS011;16399;51.686;8.684;2022-10-15T02:55:44;9.13;;;5.30;;
29422;SDS011;16399;51.686;8.684;2022-10-15T02:58:46;14.20;;;4.75;;
29422;SDS011;16399;51.686;8.684;2022-10-15T03:01:49;6.92;;;4.35;;
29422;SDS011;16399;51.686;8.684;2022-10-15T03:04:51;8.28;;;3.90;;
29422;SDS011;16399;51.686;8.684;2022-10-15T03:07:53;7.45;;;4.58;;
29422;SDS011;16399;51.686;8.684;2022-10-15T03:10:58;7.55;;;4.28;;
29422;SDS011;16399;51.686;8.684;2022-10-15T03:14:01;6.72;;;3.85;;
29422;SDS011;16399;51.686;8.684;2022-10-15T03:17:03;7.58;;;4.00;;
29422;SDS011;16399;51.686;8.684;2022-10-15T03:20:05;6.40;;;3.50;;
29422;SDS011;16399;51.686;8.684;2022-10-15T03:23:08;8.33;;;5.42;;
29422;SDS011;16399;51.686;8.684;2022-10-15T03:26:10;9.23;;;6.20;;
29422;SDS011;16399;51.686;8.684;2022-10-15T03:29:12;8.58;;;5.67;;
29422;SDS011;16399;51.686;8.684;2022-10-15T03:32:15;8.38;;;5.70;;
29422;SDS011;16399;51.686;8.684;2022-10-15T03:35:17;11.90;;;7.28;;
29422;SDS011;16399;51.686;8.684;2022-10-15T03:38:19;12.95;;;6.92;;
29422;SDS011;16399;51.686;8.684;2022-10-15T03:41:22;10.25;;;7.08;;
29422;SDS011;16399;51.686;8.684;2022-10-15T03:44:24;11.45;;;7.50;;
29422;SDS011;16399;51.686;8.684;2022-10-15T03:47:27;13.88;;;7.72;;
29422;SDS011;16399;51.686;8.684;2022-10-15T03:50:29;12.47;;;8.00;;
29422;SDS011;16399;51.686;8.684;2022-10-15T03:53:31;12.25;;;7.78;;
29422;SDS011;16399;51.686;8.684;2022-10-15T03:56:33;11.88;;;7.72;;
29422;SDS011;16399;51.686;8.684;2022-10-15T03:59:36;12.73;;;6.78;;
29422;SDS011;16399;51.686;8.684;2022-10-15T04:02:38;12.05;;;7.70;;
29422;SDS011;16399;51.686;8.684;2022-10-15T04:05:41;9.55;;;6.90;;
29422;SDS011;16399;51.686;8.684;2022-10-15T04:08:46;11.12;;;6.40;;
29422;SDS011;16399;51.686;8.684;2022-10-15T04:11:49;9.28;;;5.83;;
29422;SDS011;16399;51.686;8.684;2022-10-15T04:14:51;9.88;;;6.28;;
29422;SDS011;16399;51.686;8.684;2022-10-15T04:17:53;10.03;;;6.22;;
29422;SDS011;16399;51.686;8.684;2022-10-15T04:20:59;12.13;;;8.10;;
29422;SDS011;16399;51.686;8.684;2022-10-15T04:24:02;14.53;;;8.45;;
29422;SDS011;16399;51.686;8.684;2022-10-15T04:27:04;13.75;;;8.50;;
29422;SDS011;16399;51.686;8.684;2022-10-15T04:30:07;13.58;;;8.58;;
29422;SDS011;16399;51.686;8.684;2022-10-15T04:33:10;16.85;;;9.28;;
29422;SDS011;16399;51.686;8.684;2022-10-15T04:36:12;14.45;;;9.03;;
29422;SDS011;16399;51.686;8.684;2022-10-15T04:39:14;13.13;;;8.80;;
29422;SDS011;16399;51.686;8.684;2022-10-15T04:42:17;14.50;;;9.15;;
29422;SDS011;16399;51.686;8.684;2022-10-15T04:45:19;13.30;;;9.50;;
29422;SDS011;16399;51.686;8.684;2022-10-15T04:48:22;15.43;;;10.08;;
29422;SDS011;16399;51.686;8.684;2022-10-15T04:51:25;14.20;;;8.73;;
29422;SDS011;16399;51.686;8.684;2022-10-15T04:54:27;14.70;;;9.38;;
29422;SDS011;16399;51.686;8.684;2022-10-15T04:57:30;12.50;;;8.48;;
29422;SDS011;16399;51.686;8.684;2022-10-15T05:00:32;13.28;;;8.50;;
29422;SDS011;16399;51.686;8.684;2022-10-15T05:03:34;15.28;;;8.95;;
29422;SDS011;16399;51.686;8.684;2022-10-15T05:06:37;15.55;;;9.93;;
29422;SDS011;16399;51.686;8.684;2022-10-15T05:09:39;14.98;;;9.58;;
29422;SDS011;16399;51.686;8.684;2022-10-15T05:12:41;14.43;;;9.90;;
29422;SDS011;16399;51.686;8.684;2022-10-15T05:15:43;15.72;;;10.08;;
29422;SDS011;16399;51.686;8.684;2022-10-15T05:18:47;21.50;;;10.65;;
29422;SDS011;16399;51.686;8.684;2022-10-15T05:21:51;16.93;;;10.65;;
29422;SDS011;16399;51.686;8.684;2022-10-15T05:24:53;18.02;;;10.60;;
29422;SDS011;16399;51.686;8.684;2022-10-15T05:27:55;17.10;;;10.15;;
29422;SDS011;16399;51.686;8.684;2022-10-15T05:31:04;14.70;;;9.83;;
29422;SDS011;16399;51.686;8.684;2022-10-15T05:34:08;16.37;;;10.35;;
29422;SDS011;16399;51.686;8.684;2022-10-15T05:37:11;16.33;;;10.80;;
29422;SDS011;16399;51.686;8.684;2022-10-15T05:40:14;19.05;;;10.95;;
29422;SDS011;16399;51.686;8.684;2022-10-15T05:43:16;14.78;;;9.70;;
29422;SDS011;16399;51.686;8.684;2022-10-15T05:46:18;17.82;;;11.50;;
29422;SDS011;16399;51.686;8.684;2022-10-15T05:49:21;20.80;;;12.13;;
29422;SDS011;16399;51.686;8.684;2022-10-15T05:52:24;20.02;;;12.60;;
29422;SDS011;16399;51.686;8.684;2022-10-15T05:55:26;21.12;;;13.30;;
29422;SDS011;16399;51.686;8.684;2022-10-15T05:58:28;22.00;;;13.22;;
29422;SDS011;16399;51.686;8.684;2022-10-15T06:01:31;21.90;;;13.38;;
29422;SDS011;16399;51.686;8.684;2022-10-15T06:04:33;23.00;;;14.78;;
29422;SDS011;16399;51.686;8.684;2022-10-15T06:07:35;19.77;;;12.85;;
29422;SDS011;16399;51.686;8.684;2022-10-15T06:10:38;20.27;;;13.25;;
29422;SDS011;16399;51.686;8.684;2022-10-15T06:13:40;19.57;;;12.90;;
29422;SDS011;16399;51.686;8.684;2022-10-15T06:16:44;19.25;;;13.05;;
29422;SDS011;16399;51.686;8.684;2022-10-15T06:19:48;21.13;;;13.77;;
29422;SDS011;16399;51.686;8.684;2022-10-15T06:22:50;19.52;;;12.85;;
29422;SDS011;16399;51.686;8.684;2022-10-15T06:25:54;23.53;;;13.37;;
29422;SDS011;16399;51.686;8.684;2022-10-15T06:28:56;18.95;;;12.63;;
29422;SDS011;16399;51.686;8.684;2022-10-15T06:31:58;21.37;;;12.20;;
29422;SDS011;16399;51.686;8.684;2022-10-15T06:35:01;18.50;;;12.07;;
29422;SDS011;16399;51.686;8.684;2022-10-15T06:38:04;21.20;;;11.95;;
29422;SDS011;16399;51.686;8.684;2022-10-15T06:41:06;19.80;;;12.55;;
29422;SDS011;16399;51.686;8.684;2022-10-15T06:44:09;18.48;;;12.53;;
29422;SDS011;16399;51.686;8.684;2022-10-15T06:47:11;20.08;;;12.28;;
29422;SDS011;16399;51.686;8.684;2022-10-15T06:50:13;19.32;;;12.15;;
29422;SDS011;16399;51.686;8.684;2022-10-15T06:53:15;21.80;;;12.13;;
29422;SDS011;16399;51.686;8.684;2022-10-15T06:56:18;17.23;;;10.93;;
29422;SDS011;16399;51.686;8.684;2022-10-15T06:59:20;20.80;;;12.18;;
29422;SDS011;16399;51.686;8.684;2022-10-15T07:02:22;21.05;;;13.55;;
29422;SDS011;16399;51.686;8.684;2022-10-15T07:05:25;19.20;;;12.45;;
29422;SDS011;16399;51.686;8.684;2022-10-15T07:08:27;20.57;;;12.85;;
29422;SDS011;16399;51.686;8.684;2022-10-15T07:11:30;23.67;;;14.65;;
29422;SDS011;16399;51.686;8.684;2022-10-15T07:14:32;22.27;;;12.75;;
29422;SDS011;16399;51.686;8.684;2022-10-15T07:17:34;17.62;;;12.05;;
29422;SDS011;16399;51.686;8.684;2022-10-15T07:20:38;22.63;;;13.97;;
29422;SDS011;16399;51.686;8.684;2022-10-15T07:23:40;20.20;;;13.10;;
29422;SDS011;16399;51.686;8.684;2022-10-15T07:26:43;20.65;;;13.38;;
29422;SDS011;16399;51.686;8.684;2022-10-15T07:29:47;20.17;;;12.88;;
29422;SDS011;16399;51.686;8.684;2022-10-15T07:32:49;22.98;;;13.28;;
29422;SDS011;16399;51.686;8.684;2022-10-15T07:35:51;23.02;;;12.90;;
29422;SDS011;16399;51.686;8.684;2022-10-15T07:38:54;16.97;;;11.45;;
29422;SDS011;16399;51.686;8.684;2022-10-15T07:41:56;30.95;;;13.30;;
29422;SDS011;16399;51.686;8.684;2022-10-15T07:44:58;17.23;;;11.55;;
29422;SDS011;16399;51.686;8.684;2022-10-15T07:48:01;17.02;;;10.58;;
29422;SDS011;16399;51.686;8.684;2022-10-15T07:51:04;16.20;;;10.30;;
29422;SDS011;16399;51.686;8.684;2022-10-15T07:54:07;16.17;;;10.63;;
29422;SDS011;16399;51.686;8.684;2022-10-15T07:57:09;16.70;;;9.98;;
29422;SDS011;16399;51.686;8.684;2022-10-15T08:00:12;17.37;;;10.48;;
29422;SDS011;16399;51.686;8.684;2022-10-15T08:03:14;15.80;;;10.50;;
29422;SDS011;16399;51.686;8.684;2022-10-15T08:06:17;19.15;;;10.95;;
29422;SDS011;16399;51.686;8.684;2022-10-15T08:09:19;19.60;;;11.20;;
29422;SDS011;16399;51.686;8.684;2022-10-15T08:12:22;18.00;;;11.33;;
29422;SDS011;16399;51.686;8.684;2022-10-15T08:15:24;14.95;;;10.03;;
29422;SDS011;16399;51.686;8.684;2022-10-15T08:18:26;26.40;;;12.05;;
29422;SDS011;16399;51.686;8.684;2022-10-15T08:21:28;14.38;;;9.80;;
29422;SDS011;16399;51.686;8.684;2022-10-15T08:24:31;25.17;;;11.10;;
29422;SDS011;16399;51.686;8.684;2022-10-15T08:27:34;17.20;;;10.43;;
29422;SDS011;16399;51.686;8.684;2022-10-15T08:30:37;18.40;;;10.68;;
29422;SDS011;16399;51.686;8.684;2022-10-15T08:33:39;14.83;;;9.78;;
29422;SDS011;16399;51.686;8.684;2022-10-15T08:36:41;15.63;;;9.60;;
29422;SDS011;16399;51.686;8.684;2022-10-15T08:39:44;14.55;;;9.08;;
29422;SDS011;16399;51.686;8.684;2022-10-15T08:42:46;15.72;;;9.65;;
29422;SDS011;16399;51.686;8.684;2022-10-15T08:45:52;15.68;;;9.85;;
29422;SDS011;16399;51.686;8.684;2022-10-15T08:48:57;19.62;;;9.70;;
29422;SDS011;16399;51.686;8.684;2022-10-15T08:52:02;17.77;;;9.33;;
29422;SDS011;16399;51.686;8.684;2022-10-15T08:55:13;12.80;;;8.55;;
29422;SDS011;16399;51.686;8.684;2022-10-15T09:01:47;12.58;;;7.87;;
29422;SDS011;16399;51.686;8.684;2022-10-15T09:04:52;17.50;;;7.75;;
29422;SDS011;16399;51.686;8.684;2022-10-15T09:08:03;10.28;;;6.72;;
29422;SDS011;16399;51.686;8.684;2022-10-15T09:12:12;10.88;;;6.33;;
29422;SDS011;16399;51.686;8.684;2022-10-15T09:14:47;8.88;;;6.03;;
29422;SDS011;16399;51.686;8.684;2022-10-15T09:17:51;11.33;;;6.83;;
29422;SDS011;16399;51.686;8.684;2022-10-15T09:20:55;14.55;;;7.30;;
29422;SDS011;16399;51.686;8.684;2022-10-15T09:24:00;11.68;;;7.00;;
29422;SDS011;16399;51.686;8.684;2022-10-15T09:30:24;10.85;;;7.00;;
29422;SDS011;16399;51.686;8.684;2022-10-15T09:36:49;11.70;;;6.67;;
29422;SDS011;16399;51.686;8.684;2022-10-15T09:43:23;14.05;;;6.12;;
29422;SDS011;16399;51.686;8.684;2022-10-15T09:46:24;10.50;;;6.22;;
29422;SDS011;16399;51.686;8.684;2022-10-15T09:49:26;11.70;;;7.72;;
29422;SDS011;16399;51.686;8.684;2022-10-15T09:52:38;9.80;;;6.12;;
29422;SDS011;16399;51.686;8.684;2022-10-15T09:58:55;9.10;;;5.90;;
29422;SDS011;16399;51.686;8.684;2022-10-15T10:01:59;8.98;;;5.78;;
29422;SDS011;16399;51.686;8.684;2022-10-15T10:08:31;9.00;;;5.25;;
29422;SDS011;16399;51.686;8.684;2022-10-15T10:11:45;7.45;;;4.87;;
29422;SDS011;16399;51.686;8.684;2022-10-15T10:14:51;8.10;;;4.85;;
29422;SDS011;16399;51.686;8.684;2022-10-15T10:17:57;7.35;;;3.85;;
29422;SDS011;16399;51.686;8.684;2022-10-15T10:21:00;5.35;;;3.30;;
29422;SDS011;16399;51.686;8.684;2022-10-15T10:24:24;5.85;;;3.47;;
29422;SDS011;16399;51.686;8.684;2022-10-15T10:27:29;4.40;;;2.13;;
29422;SDS011;16399;51.686;8.684;2022-10-15T10:30:35;4.42;;;2.58;;
29422;SDS011;16399;51.686;8.684;2022-10-15T10:33:52;4.12;;;2.22;;
29422;SDS011;16399;51.686;8.684;2022-10-15T10:36:55;4.05;;;2.52;;
29422;SDS011;16399;51.686;8.684;2022-10-15T10:39:58;4.22;;;2.27;;
29422;SDS011;16399;51.686;8.684;2022-10-15T10:43:14;5.90;;;2.50;;
29422;SDS011;16399;51.686;8.684;2022-10-15T10:46:19;3.42;;;1.90;;
29422;SDS011;16399;51.686;8.684;2022-10-15T10:49:31;3.42;;;1.80;;
29422;SDS011;16399;51.686;8.684;2022-10-15T10:52:36;4.53;;;1.70;;
29422;SDS011;16399;51.686;8.684;2022-10-15T10:55:40;2.70;;;1.72;;
29422;SDS011;16399;51.686;8.684;2022-10-15T10:58:44;3.42;;;1.20;;
29422;SDS011;16399;51.686;8.684;2022-10-15T11:01:49;2.72;;;1.55;;
29422;SDS011;16399;51.686;8.684;2022-10-15T11:04:52;3.27;;;1.40;;
29422;SDS011;16399;51.686;8.684;2022-10-15T11:11:05;2.95;;;1.57;;
29422;SDS011;16399;51.686;8.684;2022-10-15T11:14:44;2.45;;;1.15;;
29422;SDS011;16399;51.686;8.684;2022-10-15T11:21:42;1.98;;;1.15;;
29422;SDS011;16399;51.686;8.684;2022-10-15T11:24:49;1.43;;;0.97;;
29422;SDS011;16399;51.686;8.684;2022-10-15T11:28:05;3.75;;;1.12;;
29422;SDS011;16399;51.686;8.684;2022-10-15T11:31:28;2.12;;;1.10;;
29422;SDS011;16399;51.686;8.684;2022-10-15T11:41:03;1.37;;;0.80;;
29422;SDS011;16399;51.686;8.684;2022-10-15T11:51:00;1.17;;;0.70;;
29422;SDS011;16399;51.686;8.684;2022-10-15T11:54:16;2.08;;;0.70;;
29422;SDS011;16399;51.686;8.684;2022-10-15T11:57:25;1.40;;;0.80;;
29422;SDS011;16399;51.686;8.684;2022-10-15T12:00:47;1.22;;;0.70;;
29422;SDS011;16399;51.686;8.684;2022-10-15T12:03:56;0.88;;;0.60;;
29422;SDS011;16399;51.686;8.684;2022-10-15T12:06:56;0.65;;;0.50;;
29422;SDS011;16399;51.686;8.684;2022-10-15T12:10:04;0.80;;;0.42;;
29422;SDS011;16399;51.686;8.684;2022-10-15T12:13:12;1.87;;;0.40;;
29422;SDS011;16399;51.686;8.684;2022-10-15T12:19:37;2.95;;;0.70;;
29422;SDS011;16399;51.686;8.684;2022-10-15T12:25:51;0.55;;;0.40;;
29422;SDS011;16399;51.686;8.684;2022-10-15T12:28:54;3.30;;;0.50;;
29422;SDS011;16399;51.686;8.684;2022-10-15T12:31:58;2.47;;;0.90;;
29422;SDS011;16399;51.686;8.684;2022-10-15T12:35:01;1.98;;;0.68;;
29422;SDS011;16399;51.686;8.684;2022-10-15T12:41:11;1.00;;;0.50;;
29422;SDS011;16399;51.686;8.684;2022-10-15T12:44:33;0.88;;;0.50;;
29422;SDS011;16399;51.686;8.684;2022-10-15T12:47:48;2.95;;;0.50;;
29422;SDS011;16399;51.686;8.684;2022-10-15T12:54:37;3.58;;;0.60;;
29422;SDS011;16399;51.686;8.684;2022-10-15T13:00:49;4.67;;;0.70;;
29422;SDS011;16399;51.686;8.684;2022-10-15T13:03:51;1.35;;;0.40;;
29422;SDS011;16399;51.686;8.684;2022-10-15T13:09:59;0.75;;;0.40;;
29422;SDS011;16399;51.686;8.684;2022-10-15T13:13:05;3.60;;;0.50;;
29422;SDS011;16399;51.686;8.684;2022-10-15T13:16:10;0.57;;;0.33;;
29422;SDS011;16399;51.686;8.684;2022-10-15T13:19:18;2.33;;;0.40;;
29422;SDS011;16399;51.686;8.684;2022-10-15T13:22:26;0.30;;;0.30;;
29422;SDS011;16399;51.686;8.684;2022-10-15T13:25:30;1.62;;;0.57;;
29422;SDS011;16399;51.686;8.684;2022-10-15T13:28:34;0.33;;;0.30;;
29422;SDS011;16399;51.686;8.684;2022-10-15T13:31:38;0.60;;;0.40;;
29422;SDS011;16399;51.686;8.684;2022-10-15T13:34:43;1.02;;;0.35;;
29422;SDS011;16399;51.686;8.684;2022-10-15T13:37:45;1.15;;;0.40;;
29422;SDS011;16399;51.686;8.684;2022-10-15T13:40:49;0.30;;;0.30;;
29422;SDS011;16399;51.686;8.684;2022-10-15T13:46:57;0.62;;;0.40;;
29422;SDS011;16399;51.686;8.684;2022-10-15T13:53:21;1.27;;;0.40;;
29422;SDS011;16399;51.686;8.684;2022-10-15T13:56:28;7.95;;;1.52;;
29422;SDS011;16399;51.686;8.684;2022-10-15T14:02:34;1.20;;;0.40;;
29422;SDS011;16399;51.686;8.684;2022-10-15T14:05:36;0.72;;;0.42;;
29422;SDS011;16399;51.686;8.684;2022-10-15T14:08:38;0.40;;;0.40;;
29422;SDS011;16399;51.686;8.684;2022-10-15T14:11:41;0.30;;;0.30;;
29422;SDS011;16399;51.686;8.684;2022-10-15T14:14:44;1.75;;;0.55;;
29422;SDS011;16399;51.686;8.684;2022-10-15T14:17:48;0.40;;;0.40;;
29422;SDS011;16399;51.686;8.684;2022-10-15T14:20:51;0.95;;;0.37;;
29422;SDS011;16399;51.686;8.684;2022-10-15T14:24:04;3.37;;;0.50;;
29422;SDS011;16399;51.686;8.684;2022-10-15T14:30:27;2.55;;;0.70;;
29422;SDS011;16399;51.686;8.684;2022-10-15T14:36:43;0.72;;;0.30;;
29422;SDS011;16399;51.686;8.684;2022-10-15T14:39:46;0.60;;;0.50;;
29422;SDS011;16399;51.686;8.684;2022-10-15T14:43:05;1.62;;;0.60;;
29422;SDS011;16399;51.686;8.684;2022-10-15T14:46:14;0.70;;;0.33;;
29422;SDS011;16399;51.686;8.684;2022-10-15T14:49:19;0.88;;;0.47;;
29422;SDS011;16399;51.686;8.684;2022-10-15T14:52:24;1.07;;;0.40;;
29422;SDS011;16399;51.686;8.684;2022-10-15T14:55:30;1.70;;;0.33;;
29422;SDS011;16399;51.686;8.684;2022-10-15T14:58:39;0.28;;;0.20;;
29422;SDS011;16399;51.686;8.684;2022-10-15T15:01:55;1.00;;;0.30;;
29422;SDS011;16399;51.686;8.684;2022-10-15T15:05:06;0.42;;;0.25;;
29422;SDS011;16399;51.686;8.684;2022-10-15T15:08:10;0.80;;;0.40;;
29422;SDS011;16399;51.686;8.684;2022-10-15T15:11:23;0.60;;;0.40;;
29422;SDS011;16399;51.686;8.684;2022-10-15T15:14:23;2.22;;;0.68;;
29422;SDS011;16399;51.686;8.684;2022-10-15T15:20:29;3.05;;;0.47;;
29422;SDS011;16399;51.686;8.684;2022-10-15T15:23:32;1.65;;;0.60;;
29422;SDS011;16399;51.686;8.684;2022-10-15T15:26:35;0.53;;;0.30;;
29422;SDS011;16399;51.686;8.684;2022-10-15T15:29:37;0.42;;;0.30;;
29422;SDS011;16399;51.686;8.684;2022-10-15T15:32:40;0.55;;;0.35;;
29422;SDS011;16399;51.686;8.684;2022-10-15T15:35:52;1.05;;;0.60;;
29422;SDS011;16399;51.686;8.684;2022-10-15T15:39:02;1.20;;;0.30;;
29422;SDS011;16399;51.686;8.684;2022-10-15T15:42:04;2.37;;;0.40;;
29422;SDS011;16399;51.686;8.684;2022-10-15T15:45:10;1.45;;;0.40;;
29422;SDS011;16399;51.686;8.684;2022-10-15T15:48:23;1.27;;;0.55;;
29422;SDS011;16399;51.686;8.684;2022-10-15T15:51:27;0.40;;;0.40;;
29422;SDS011;16399;51.686;8.684;2022-10-15T15:54:31;0.70;;;0.40;;
29422;SDS011;16399;51.686;8.684;2022-10-15T15:57:33;3.60;;;0.65;;
29422;SDS011;16399;51.686;8.684;2022-10-15T16:00:36;1.85;;;0.68;;
29422;SDS011;16399;51.686;8.684;2022-10-15T16:03:38;0.75;;;0.40;;
29422;SDS011;16399;51.686;8.684;2022-10-15T16:06:41;2.15;;;0.50;;
29422;SDS011;16399;51.686;8.684;2022-10-15T16:09:43;2.77;;;0.60;;
29422;SDS011;16399;51.686;8.684;2022-10-15T16:12:45;1.77;;;0.33;;
29422;SDS011;16399;51.686;8.684;2022-10-15T16:15:48;0.55;;;0.40;;
29422;SDS011;16399;51.686;8.684;2022-10-15T16:18:50;3.45;;;0.50;;
29422;SDS011;16399;51.686;8.684;2022-10-15T16:21:52;7.60;;;2.20;;
29422;SDS011;16399;51.686;8.684;2022-10-15T16:24:55;2.50;;;0.93;;
29422;SDS011;16399;51.686;8.684;2022-10-15T16:27:57;1.92;;;0.85;;
29422;SDS011;16399;51.686;8.684;2022-10-15T16:31:20;0.72;;;0.47;;
29422;SDS011;16399;51.686;8.684;2022-10-15T16:34:25;1.17;;;0.65;;
29422;SDS011;16399;51.686;8.684;2022-10-15T16:37:27;1.05;;;0.50;;
29422;SDS011;16399;51.686;8.684;2022-10-15T16:40:29;3.72;;;0.62;;
29422;SDS011;16399;51.686;8.684;2022-10-15T16:43:33;2.30;;;0.60;;
29422;SDS011;16399;51.686;8.684;2022-10-15T16:46:36;1.25;;;0.50;;
29422;SDS011;16399;51.686;8.684;2022-10-15T16:49:38;0.70;;;0.50;;
29422;SDS011;16399;51.686;8.684;2022-10-15T16:52:42;1.07;;;0.50;;
29422;SDS011;16399;51.686;8.684;2022-10-15T16:55:44;2.80;;;0.88;;
29422;SDS011;16399;51.686;8.684;2022-10-15T16:58:46;1.10;;;0.50;;
29422;SDS011;16399;51.686;8.684;2022-10-15T17:01:49;1.12;;;0.55;;
29422;SDS011;16399;51.686;8.684;2022-10-15T17:04:51;1.17;;;0.60;;
29422;SDS011;16399;51.686;8.684;2022-10-15T17:07:53;3.08;;;0.60;;
29422;SDS011;16399;51.686;8.684;2022-10-15T17:10:56;2.80;;;0.65;;
29422;SDS011;16399;51.686;8.684;2022-10-15T17:13:59;0.37;;;0.37;;
29422;SDS011;16399;51.686;8.684;2022-10-15T17:17:03;1.05;;;0.50;;
29422;SDS011;16399;51.686;8.684;2022-10-15T17:20:07;0.30;;;0.30;;
29422;SDS011;16399;51.686;8.684;2022-10-15T17:23:09;0.95;;;0.47;;
29422;SDS011;16399;51.686;8.684;2022-10-15T17:26:13;1.20;;;0.50;;
29422;SDS011;16399;51.686;8.684;2022-10-15T17:29:18;0.40;;;0.37;;
29422;SDS011;16399;51.686;8.684;2022-10-15T17:32:22;1.15;;;0.40;;
29422;SDS011;16399;51.686;8.684;2022-10-15T17:35:25;0.82;;;0.40;;
29422;SDS011;16399;51.686;8.684;2022-10-15T17:38:28;1.15;;;0.60;;
29422;SDS011;16399;51.686;8.684;2022-10-15T17:41:30;0.90;;;0.50;;
29422;SDS011;16399;51.686;8.684;2022-10-15T17:44:32;1.75;;;0.60;;
29422;SDS011;16399;51.686;8.684;2022-10-15T17:47:35;1.05;;;0.60;;
29422;SDS011;16399;51.686;8.684;2022-10-15T17:50:40;4.42;;;0.70;;
29422;SDS011;16399;51.686;8.684;2022-10-15T17:53:43;4.35;;;1.37;;
29422;SDS011;16399;51.686;8.684;2022-10-15T17:56:45;5.67;;;1.27;;
29422;SDS011;16399;51.686;8.684;2022-10-15T17:59:48;1.75;;;0.95;;
29422;SDS011;16399;51.686;8.684;2022-10-15T18:02:50;4.62;;;1.10;;
29422;SDS011;16399;51.686;8.684;2022-10-15T18:05:52;6.65;;;3.08;;
29422;SDS011;16399;51.686;8.684;2022-10-15T18:08:55;43.45;;;18.07;;
29422;SDS011;16399;51.686;8.684;2022-10-15T18:12:00;13.80;;;5.70;;
29422;SDS011;16399;51.686;8.684;2022-10-15T18:15:02;5.60;;;2.22;;
29422;SDS011;16399;51.686;8.684;2022-10-15T18:18:05;7.00;;;3.15;;
29422;SDS011;16399;51.686;8.684;2022-10-15T18:21:07;6.70;;;1.20;;
29422;SDS011;16399;51.686;8.684;2022-10-15T18:24:11;2.58;;;0.80;;
29422;SDS011;16399;51.686;8.684;2022-10-15T18:27:13;2.55;;;1.00;;
29422;SDS011;16399;51.686;8.684;2022-10-15T18:30:16;1.80;;;0.78;;
29422;SDS011;16399;51.686;8.684;2022-10-15T18:33:18;3.33;;;0.95;;
29422;SDS011;16399;51.686;8.684;2022-10-15T18:36:21;4.28;;;1.25;;
29422;SDS011;16399;51.686;8.684;2022-10-15T18:39:28;6.72;;;1.30;;
29422;SDS011;16399;51.686;8.684;2022-10-15T18:42:30;1.80;;;0.90;;
29422;SDS011;16399;51.686;8.684;2022-10-15T18:45:34;2.45;;;0.98;;
29422;SDS011;16399;51.686;8.684;2022-10-15T18:48:37;3.30;;;0.97;;
29422;SDS011;16399;51.686;8.684;2022-10-15T18:51:39;5.85;;;1.40;;
29422;SDS011;16399;51.686;8.684;2022-10-15T18:54:42;4.83;;;1.65;;
29422;SDS011;16399;51.686;8.684;2022-10-15T18:57:45;3.45;;;1.57;;
29422;SDS011;16399;51.686;8.684;2022-10-15T19:00:48;3.37;;;1.90;;
29422;SDS011;16399;51.686;8.684;2022-10-15T19:03:51;5.62;;;2.45;;
29422;SDS011;16399;51.686;8.684;2022-10-15T19:06:54;5.80;;;2.30;;
29422;SDS011;16399;51.686;8.684;2022-10-15T19:09:58;5.95;;;2.77;;
29422;SDS011;16399;51.686;8.684;2022-10-15T19:13:00;6.42;;;2.98;;
29422;SDS011;16399;51.686;8.684;2022-10-15T19:16:03;4.42;;;2.40;;
29422;SDS011;16399;51.686;8.684;2022-10-15T19:19:05;6.47;;;2.75;;
29422;SDS011;16399;51.686;8.684;2022-10-15T19:22:08;7.50;;;2.72;;
29422;SDS011;16399;51.686;8.684;2022-10-15T19:25:10;5.70;;;3.10;;
29422;SDS011;16399;51.686;8.684;2022-10-15T19:28:12;14.68;;;7.95;;
29422;SDS011;16399;51.686;8.684;2022-10-15T19:31:25;9.18;;;4.53;;
29422;SDS011;16399;51.686;8.684;2022-10-15T19:34:32;20.48;;;10.10;;
29422;SDS011;16399;51.686;8.684;2022-10-15T19:37:35;21.93;;;11.48;;
29422;SDS011;16399;51.686;8.684;2022-10-15T19:40:37;8.38;;;4.90;;
29422;SDS011;16399;51.686;8.684;2022-10-15T19:43:40;4.72;;;2.80;;
29422;SDS011;16399;51.686;8.684;2022-10-15T19:46:43;5.08;;;2.20;;
29422;SDS011;16399;51.686;8.684;2022-10-15T19:49:48;7.25;;;2.05;;
29422;SDS011;16399;51.686;8.684;2022-10-15T19:52:50;7.10;;;2.25;;